M/y Arion — 9HB2161 — position and weather

sailwx.info

Track history (hours):
 
Tides and Currents Weather Stations Pressure Air Temp Water Temp Dewpoint Dewpoint Depression Visibility Wind Speed Wind Dir Waves Ship Positions

M/y Arion

Last reported at 2014-Jul-27 03:33 UTC. Time now 2014-Jul-30 13:17 UTC.
Position N 43°27' E 007°07'.

Length 37 m; draft 2.2 m.

Type: Other ship. MMSI: 215479000.

Date/timePositionNaut miles runAvg speedWind from/ knotsBaromVisibWave heightAir tempDewpointWater temp
2014-Jul-27 03:33N 43°27' E 007°07'8 3.5
2014-Jul-27 01:26N 43°30' E 006°57'0 0.0
2014-Jul-26 23:10N 43°30' E 006°57'0 0.0
2014-Jul-26 21:28N 43°30' E 006°57'0 0.0
2014-Jul-26 19:17N 43°30' E 006°57'0 0.0
2014-Jul-26 18:29N 43°30' E 006°57'0 0.0
2014-Jul-26 17:25N 43°30' E 006°57'4 4.8
2014-Jul-26 16:31N 43°31' E 007°03'0 0.0
2014-Jul-26 15:19N 43°31' E 007°03'0 0.0
2014-Jul-26 14:31N 43°31' E 007°03'4 1.2
2014-Jul-26 11:33N 43°32' E 007°08'1312.8
2014-Jul-26 10:34N 43°41' E 007°20'0 0.0
2014-Jul-26 09:33N 43°41' E 007°20'0 0.0
2014-Jul-26 08:34N 43°41' E 007°20'2 2.4
2014-Jul-26 07:33N 43°42' E 007°17'0 0.0
2014-Jul-26 06:34N 43°42' E 007°17'0 0.0
2014-Jul-26 05:33N 43°42' E 007°17'0 0.0
2014-Jul-26 04:34N 43°42' E 007°17'0 0.0
2014-Jul-26 03:34N 43°42' E 007°17'0 0.0
2014-Jul-26 02:34N 43°42' E 007°17'0 0.0
2014-Jul-26 01:33N 43°42' E 007°17'0 0.0
2014-Jul-26 00:34N 43°42' E 007°17'0 0.0
2014-Jul-25 23:34N 43°42' E 007°17'0 0.0
2014-Jul-25 22:34N 43°42' E 007°17'0 0.0
2014-Jul-25 21:33N 43°42' E 007°17'0 0.0
2014-Jul-25 20:34N 43°42' E 007°17'0 0.0
2014-Jul-25 18:18N 43°42' E 007°17'0 0.0
2014-Jul-25 16:34N 43°42' E 007°17'0 0.0
2014-Jul-25 15:33N 43°42' E 007°17'0 0.0
2014-Jul-25 14:34N 43°42' E 007°17'0 0.0
2014-Jul-25 13:34N 43°42' E 007°17'0 0.0
2014-Jul-25 12:34N 43°42' E 007°17'0 0.0
2014-Jul-25 11:34N 43°42' E 007°17'0 0.0
2014-Jul-25 10:34N 43°42' E 007°17'0 0.0
2014-Jul-25 09:33N 43°42' E 007°17'0 0.0
2014-Jul-25 08:33N 43°42' E 007°17'0 0.0
2014-Jul-25 07:33N 43°42' E 007°17'0 0.0
2014-Jul-25 06:34N 43°42' E 007°17'0 0.0
2014-Jul-25 05:34N 43°42' E 007°17'0 0.0
2014-Jul-25 04:34N 43°42' E 007°17'0 0.0
2014-Jul-25 03:34N 43°42' E 007°17'0 0.0
2014-Jul-25 02:33N 43°42' E 007°17'0 0.0
2014-Jul-25 01:34N 43°42' E 007°17'0 0.0
2014-Jul-25 00:33N 43°42' E 007°17'0 0.0
2014-Jul-24 23:33N 43°42' E 007°17'0 0.0
2014-Jul-24 22:33N 43°42' E 007°17'0 0.0
2014-Jul-24 21:33N 43°42' E 007°17'0 0.0
2014-Jul-24 20:34N 43°42' E 007°17'0 0.0
2014-Jul-24 19:33N 43°42' E 007°17'0 0.0
2014-Jul-24 18:34N 43°42' E 007°17'0 0.0
2014-Jul-24 17:34N 43°42' E 007°17'0 0.0
2014-Jul-24 16:21N 43°42' E 007°17'0 0.0
2014-Jul-24 15:34N 43°42' E 007°17'0 0.0
2014-Jul-24 14:33N 43°42' E 007°17'0 0.0
2014-Jul-24 13:34N 43°42' E 007°17'0 0.0
2014-Jul-24 12:32N 43°42' E 007°17'1212.6
2014-Jul-24 11:33N 43°32' E 007°06'3 2.8
2014-Jul-24 10:33N 43°32' E 007°03'0 0.0
2014-Jul-24 09:33N 43°32' E 007°03'0 0.0
2014-Jul-24 08:33N 43°32' E 007°03'0 0.0
2014-Jul-24 07:33N 43°32' E 007°03'0 0.0
2014-Jul-24 06:32N 43°32' E 007°03'0 0.0
2014-Jul-24 05:33N 43°32' E 007°03'0 0.0
2014-Jul-24 04:33N 43°32' E 007°03'0 0.0
2014-Jul-24 03:33N 43°32' E 007°03'0 0.0
2014-Jul-24 02:33N 43°32' E 007°03'0 0.0
2014-Jul-24 01:32N 43°32' E 007°03'0 0.0
2014-Jul-24 00:33N 43°32' E 007°03'0 0.0
2014-Jul-23 23:26N 43°32' E 007°03'1112.7
2014-Jul-23 22:33N 43°22' E 006°56'2018.9
2014-Jul-23 21:31N 43°08' E 006°36'1818.6
2014-Jul-23 20:33N 43°03' E 006°13'3 2.6
2014-Jul-23 19:33N 43°02' E 006°09'4 4.1
2014-Jul-23 18:33N 43°02' E 006°15'2920.4
2014-Jul-23 17:08N 42°55' E 006°54'1820.1
2014-Jul-23 16:15N 42°54' E 007°18'1217.7
2014-Jul-23 15:33N 42°53' E 007°35'1717.2
2014-Jul-23 14:32N 42°51' E 007°58'  
2014-Jul-18 14:18N 41°50' E 008°42'6 1.9
2014-Jul-18 11:11N 41°44' E 008°41'1 1.5
2014-Jul-18 10:29N 41°45' E 008°41'0 0.0
2014-Jul-18 09:33N 41°45' E 008°41'9 0.5
2014-Jul-17 13:10N 41°54' E 008°37'3 0.7
2014-Jul-17 09:25N 41°53' E 008°40'  
Track history (hours):
 
Tides and Currents Weather Stations Pressure Air Temp Water Temp Dewpoint Dewpoint Depression Visibility Wind Speed Wind Dir Waves Ship Positions

M/y Arion

Last reported at 2014-Jul-27 03:33 UTC. Time now 2014-Jul-30 13:17 UTC.
Position N 43°27' E 007°07'.

Length 37 m; draft 2.2 m.

Type: Other ship. MMSI: 215479000.

Date/timePositionNaut miles runAvg speedWind from/ knotsBaromVisibWave heightAir tempDewpointWater temp
2014-Jul-27 03:33N 43°27' E 007°07'8 3.5
2014-Jul-27 01:26N 43°30' E 006°57'0 0.0
2014-Jul-26 23:10N 43°30' E 006°57'0 0.0
2014-Jul-26 21:28N 43°30' E 006°57'0 0.0
2014-Jul-26 19:17N 43°30' E 006°57'0 0.0
2014-Jul-26 18:29N 43°30' E 006°57'0 0.0
2014-Jul-26 17:25N 43°30' E 006°57'4 4.8
2014-Jul-26 16:31N 43°31' E 007°03'0 0.0
2014-Jul-26 15:19N 43°31' E 007°03'0 0.0
2014-Jul-26 14:31N 43°31' E 007°03'4 1.2
2014-Jul-26 11:33N 43°32' E 007°08'1312.8
2014-Jul-26 10:34N 43°41' E 007°20'0 0.0
2014-Jul-26 09:33N 43°41' E 007°20'0 0.0
2014-Jul-26 08:34N 43°41' E 007°20'2 2.4
2014-Jul-26 07:33N 43°42' E 007°17'0 0.0
2014-Jul-26 06:34N 43°42' E 007°17'0 0.0
2014-Jul-26 05:33N 43°42' E 007°17'0 0.0
2014-Jul-26 04:34N 43°42' E 007°17'0 0.0
2014-Jul-26 03:34N 43°42' E 007°17'0 0.0
2014-Jul-26 02:34N 43°42' E 007°17'0 0.0
2014-Jul-26 01:33N 43°42' E 007°17'0 0.0
2014-Jul-26 00:34N 43°42' E 007°17'0 0.0
2014-Jul-25 23:34N 43°42' E 007°17'0 0.0
2014-Jul-25 22:34N 43°42' E 007°17'0 0.0
2014-Jul-25 21:33N 43°42' E 007°17'0 0.0
2014-Jul-25 20:34N 43°42' E 007°17'0 0.0
2014-Jul-25 18:18N 43°42' E 007°17'0 0.0
2014-Jul-25 16:34N 43°42' E 007°17'0 0.0
2014-Jul-25 15:33N 43°42' E 007°17'0 0.0
2014-Jul-25 14:34N 43°42' E 007°17'0 0.0
2014-Jul-25 13:34N 43°42' E 007°17'0 0.0
2014-Jul-25 12:34N 43°42' E 007°17'0 0.0
2014-Jul-25 11:34N 43°42' E 007°17'0 0.0
2014-Jul-25 10:34N 43°42' E 007°17'0 0.0
2014-Jul-25 09:33N 43°42' E 007°17'0 0.0
2014-Jul-25 08:33N 43°42' E 007°17'0 0.0
2014-Jul-25 07:33N 43°42' E 007°17'0 0.0
2014-Jul-25 06:34N 43°42' E 007°17'0 0.0
2014-Jul-25 05:34N 43°42' E 007°17'0 0.0
2014-Jul-25 04:34N 43°42' E 007°17'0 0.0
2014-Jul-25 03:34N 43°42' E 007°17'0 0.0
2014-Jul-25 02:33N 43°42' E 007°17'0 0.0
2014-Jul-25 01:34N 43°42' E 007°17'0 0.0
2014-Jul-25 00:33N 43°42' E 007°17'0 0.0
2014-Jul-24 23:33N 43°42' E 007°17'0 0.0
2014-Jul-24 22:33N 43°42' E 007°17'0 0.0
2014-Jul-24 21:33N 43°42' E 007°17'0 0.0
2014-Jul-24 20:34N 43°42' E 007°17'0 0.0
2014-Jul-24 19:33N 43°42' E 007°17'0 0.0
2014-Jul-24 18:34N 43°42' E 007°17'0 0.0
2014-Jul-24 17:34N 43°42' E 007°17'0 0.0
2014-Jul-24 16:21N 43°42' E 007°17'0 0.0
2014-Jul-24 15:34N 43°42' E 007°17'0 0.0
2014-Jul-24 14:33N 43°42' E 007°17'0 0.0
2014-Jul-24 13:34N 43°42' E 007°17'0 0.0
2014-Jul-24 12:32N 43°42' E 007°17'1212.6
2014-Jul-24 11:33N 43°32' E 007°06'3 2.8
2014-Jul-24 10:33N 43°32' E 007°03'0 0.0
2014-Jul-24 09:33N 43°32' E 007°03'0 0.0
2014-Jul-24 08:33N 43°32' E 007°03'0 0.0
2014-Jul-24 07:33N 43°32' E 007°03'0 0.0
2014-Jul-24 06:32N 43°32' E 007°03'0 0.0
2014-Jul-24 05:33N 43°32' E 007°03'0 0.0
2014-Jul-24 04:33N 43°32' E 007°03'0 0.0
2014-Jul-24 03:33N 43°32' E 007°03'0 0.0
2014-Jul-24 02:33N 43°32' E 007°03'0 0.0
2014-Jul-24 01:32N 43°32' E 007°03'0 0.0
2014-Jul-24 00:33N 43°32' E 007°03'0 0.0
2014-Jul-23 23:26N 43°32' E 007°03'1112.7
2014-Jul-23 22:33N 43°22' E 006°56'2018.9
2014-Jul-23 21:31N 43°08' E 006°36'1818.6
2014-Jul-23 20:33N 43°03' E 006°13'3 2.6
2014-Jul-23 19:33N 43°02' E 006°09'4 4.1
2014-Jul-23 18:33N 43°02' E 006°15'2920.4
2014-Jul-23 17:08N 42°55' E 006°54'1820.1
2014-Jul-23 16:15N 42°54' E 007°18'1217.7
2014-Jul-23 15:33N 42°53' E 007°35'1717.2
2014-Jul-23 14:32N 42°51' E 007°58'  
2014-Jul-18 14:18N 41°50' E 008°42'6 1.9
2014-Jul-18 11:11N 41°44' E 008°41'1 1.5
2014-Jul-18 10:29N 41°45' E 008°41'0 0.0
2014-Jul-18 09:33N 41°45' E 008°41'9 0.5
2014-Jul-17 13:10N 41°54' E 008°37'3 0.7
2014-Jul-17 09:25N 41°53' E 008°40'  

Dump ship's entire track history